createdAt,value
2018-07-24T00:01:46.360Z,96.60
2018-07-24T00:04:13.349Z,97.30
2018-07-24T00:06:40.343Z,96.00
2018-07-24T00:09:09.462Z,95.60
2018-07-24T00:11:36.451Z,95.90
2018-07-24T00:14:03.431Z,96.70
2018-07-24T00:16:30.455Z,97.10
2018-07-24T00:21:24.512Z,98.20
2018-07-24T00:23:51.600Z,98.40
2018-07-24T00:26:18.598Z,98.50
2018-07-24T00:28:45.579Z,98.10
2018-07-24T00:33:43.497Z,98.80
2018-07-24T00:36:11.432Z,99.00
2018-07-24T00:38:38.464Z,99.80
2018-07-24T00:41:05.480Z,99.90
2018-07-24T00:43:32.455Z,99.90
2018-07-24T00:50:57.728Z,98.50
2018-07-24T00:53:24.781Z,98.20
2018-07-24T00:55:51.763Z,98.10
2018-07-24T00:58:18.746Z,98.50
2018-07-24T01:00:45.817Z,98.60
2018-07-24T01:03:12.766Z,99.80
2018-07-24T01:05:39.764Z,98.70
2018-07-24T01:08:06.802Z,98.70
2018-07-24T01:13:12.320Z,99.00
2018-07-24T01:15:39.309Z,98.80
2018-07-24T01:18:06.288Z,99.30
2018-07-24T01:20:34.959Z,98.20
2018-07-24T01:23:01.949Z,98.30
2018-07-24T01:25:30.417Z,98.80
2018-07-24T01:27:57.466Z,99.10
2018-07-24T01:30:25.396Z,99.10
2018-07-24T01:32:52.381Z,99.60
2018-07-24T01:35:19.431Z,99.80
2018-07-24T01:37:46.418Z,99.90
2018-07-24T01:40:13.456Z,99.90
2018-07-24T01:42:40.525Z,99.90
2018-07-24T01:45:07.503Z,99.90
2018-07-24T01:47:34.507Z,99.90
2018-07-24T01:50:01.546Z,99.90
2018-07-24T01:52:28.556Z,99.90
2018-07-24T01:54:55.536Z,99.90
2018-07-24T01:57:22.610Z,99.90
2018-07-24T01:59:49.597Z,99.90
2018-07-24T02:02:16.587Z,99.90
2018-07-24T02:04:43.638Z,99.90
2018-07-24T02:07:10.619Z,99.90
2018-07-24T02:09:37.610Z,99.90
2018-07-24T02:12:05.609Z,99.90
2018-07-24T02:14:32.607Z,99.90
2018-07-24T02:19:40.095Z,99.90
2018-07-24T02:22:07.080Z,99.90
2018-07-24T02:24:34.071Z,99.90
2018-07-24T02:27:01.136Z,99.50
2018-07-24T02:29:28.128Z,99.50
2018-07-24T02:31:55.199Z,99.50
2018-07-24T02:34:22.147Z,99.30
2018-07-24T02:36:53.334Z,99.90
2018-07-24T02:41:47.701Z,99.90
2018-07-24T02:44:14.692Z,99.90
2018-07-24T02:49:08.829Z,99.90
2018-07-24T02:51:35.824Z,99.80
2018-07-24T02:58:57.342Z,99.80
2018-07-24T03:01:24.332Z,99.00
2018-07-24T03:03:54.343Z,99.20
2018-07-24T03:08:48.401Z,99.60
2018-07-24T03:11:15.459Z,99.00
2018-07-24T03:13:43.273Z,99.40
2018-07-24T03:16:10.295Z,99.30
2018-07-24T03:21:09.360Z,99.80
2018-07-24T03:23:36.354Z,99.90
2018-07-24T03:26:03.369Z,99.90
2018-07-24T03:28:32.261Z,99.90
2018-07-24T03:30:59.250Z,99.90
2018-07-24T03:33:26.240Z,99.90
2018-07-24T03:35:53.300Z,99.90
2018-07-24T03:38:20.289Z,99.90
2018-07-24T03:43:26.434Z,99.90
2018-07-24T03:45:53.413Z,99.90
2018-07-24T03:48:20.415Z,99.90
2018-07-24T03:50:47.471Z,99.90
2018-07-24T03:53:14.461Z,99.90
2018-07-24T03:55:41.454Z,99.90
2018-07-24T03:58:13.572Z,99.90
2018-07-24T04:00:39.600Z,99.90
2018-07-24T04:03:14.311Z,99.90
2018-07-24T04:05:42.186Z,99.90
2018-07-24T04:08:09.267Z,99.90
2018-07-24T04:10:36.355Z,99.90
2018-07-24T04:13:03.430Z,99.90
2018-07-24T04:15:30.422Z,99.90
2018-07-24T04:17:57.484Z,99.90
2018-07-24T04:20:24.468Z,99.90
2018-07-24T04:22:51.453Z,99.90
2018-07-24T04:25:18.507Z,99.90
2018-07-24T04:30:13.043Z,99.90
2018-07-24T04:32:40.090Z,99.90
2018-07-24T04:35:09.171Z,99.90
2018-07-24T04:37:36.215Z,99.90
2018-07-24T04:40:09.679Z,99.90
2018-07-24T04:45:17.079Z,99.90
2018-07-24T04:47:44.067Z,99.90
2018-07-24T04:50:12.022Z,99.90
2018-07-24T04:52:39.436Z,99.90
2018-07-24T04:55:09.684Z,99.90
2018-07-24T04:57:36.676Z,99.90
2018-07-24T05:00:03.698Z,99.90
2018-07-24T05:02:30.700Z,99.90
2018-07-24T05:04:57.658Z,99.90
2018-07-24T05:07:24.707Z,99.90
2018-07-24T05:09:51.695Z,99.90
2018-07-24T05:12:18.679Z,99.90
2018-07-24T05:14:45.714Z,99.90
2018-07-24T05:17:13.771Z,99.90
2018-07-24T05:19:40.750Z,99.90
2018-07-24T05:22:11.515Z,99.90
2018-07-24T05:24:34.805Z,99.90
2018-07-24T05:27:02.618Z,99.90
2018-07-24T05:29:30.462Z,99.90
2018-07-24T05:31:57.451Z,99.90
2018-07-24T05:34:26.172Z,99.90
2018-07-24T05:36:53.197Z,99.90
2018-07-24T05:39:22.429Z,99.90
2018-07-24T05:41:49.389Z,99.90
2018-07-24T05:44:16.367Z,99.90
2018-07-24T05:46:43.353Z,99.90
2018-07-24T05:49:12.279Z,99.90
2018-07-24T05:51:38.349Z,99.90
2018-07-24T05:54:05.334Z,99.90
2018-07-24T05:59:00.262Z,99.90
2018-07-24T06:01:27.259Z,99.90
2018-07-24T06:06:38.677Z,99.90
2018-07-24T06:09:05.682Z,99.10
2018-07-24T06:11:32.666Z,99.30
2018-07-24T06:13:59.723Z,97.90
2018-07-24T06:18:55.322Z,96.40
2018-07-24T06:21:22.354Z,97.60
2018-07-24T06:23:49.433Z,96.20
2018-07-24T06:26:17.403Z,98.30
2018-07-24T06:28:47.609Z,94.50
2018-07-24T06:31:15.470Z,91.50
2018-07-24T06:33:43.278Z,89.50
2018-07-24T06:36:10.947Z,87.00
2018-07-24T06:38:38.890Z,88.10
2018-07-24T06:43:37.424Z,86.90
2018-07-24T06:46:09.304Z,86.20
2018-07-24T06:48:36.292Z,88.20
2018-07-24T06:51:03.368Z,87.60
2018-07-24T06:53:30.335Z,85.00
2018-07-24T06:55:57.323Z,86.20
2018-07-24T06:58:24.361Z,81.10
2018-07-24T07:05:46.599Z,78.80
2018-07-24T07:08:13.595Z,80.80
2018-07-24T07:10:41.329Z,78.40
2018-07-24T07:13:08.411Z,76.90
2018-07-24T07:15:35.353Z,69.80
2018-07-24T07:18:02.335Z,75.90
2018-07-24T07:20:30.285Z,75.40
2018-07-24T07:25:38.714Z,76.60
2018-07-24T07:28:05.693Z,72.00
2018-07-24T07:30:32.678Z,69.00
2018-07-24T07:32:59.720Z,74.80
2018-07-24T07:35:26.702Z,72.60
2018-07-24T07:37:56.005Z,71.70
2018-07-24T07:40:23.873Z,67.20
2018-07-24T07:42:53.847Z,65.60
2018-07-24T07:45:21.827Z,68.80
2018-07-24T07:47:50.459Z,72.70
2018-07-24T07:50:17.449Z,68.70
2018-07-24T07:52:45.242Z,65.90
2018-07-24T07:55:12.327Z,67.20
2018-07-24T07:57:39.956Z,66.40
2018-07-24T08:00:06.938Z,59.50
2018-07-24T08:02:34.928Z,62.60
2018-07-24T08:05:01.897Z,57.70
2018-07-24T08:07:28.879Z,64.90
2018-07-24T08:09:55.932Z,59.40
2018-07-24T08:12:27.317Z,58.50
2018-07-24T08:14:55.277Z,58.20
2018-07-24T08:17:22.811Z,63.00
2018-07-24T08:19:49.796Z,55.50
2018-07-24T08:24:57.874Z,53.10
2018-07-24T08:27:25.692Z,58.20
2018-07-24T08:29:56.594Z,55.90
2018-07-24T08:32:23.571Z,55.10
2018-07-24T08:34:51.483Z,48.50
2018-07-24T08:37:18.461Z,48.40
2018-07-24T08:39:48.609Z,49.70
2018-07-24T08:42:16.378Z,53.80
2018-07-24T08:44:43.413Z,46.80
2018-07-24T08:49:42.329Z,48.60
2018-07-24T08:52:09.404Z,43.80
2018-07-24T08:54:37.921Z,49.80
2018-07-24T08:57:04.787Z,44.80
2018-07-24T08:59:32.719Z,43.30
2018-07-24T09:04:26.814Z,30.20
2018-07-24T09:06:53.806Z,34.00
2018-07-24T09:09:20.784Z,27.70
2018-07-24T09:11:48.793Z,27.30
2018-07-24T09:14:15.777Z,26.00
2018-07-24T09:16:42.764Z,28.20
2018-07-24T09:19:09.786Z,24.50
2018-07-24T09:21:39.396Z,23.80
2018-07-24T09:24:06.384Z,23.60
2018-07-24T09:26:33.442Z,28.60
2018-07-24T09:29:00.421Z,22.40
2018-07-24T09:34:07.988Z,22.80
2018-07-24T09:36:35.697Z,19.90
2018-07-24T09:39:02.689Z,20.20
2018-07-24T09:41:30.707Z,18.90
2018-07-24T09:43:58.656Z,19.00
2018-07-24T09:46:25.646Z,18.50
2018-07-24T09:48:52.681Z,19.40
2018-07-24T09:51:20.483Z,17.40
2018-07-24T09:53:47.470Z,20.10
2018-07-24T09:56:15.985Z,20.10
2018-07-24T09:58:42.977Z,17.20
2018-07-24T10:01:09.955Z,18.90
2018-07-24T10:03:36.989Z,18.90
2018-07-24T10:06:03.991Z,18.10
2018-07-24T10:08:30.971Z,16.20
2018-07-24T10:10:58.035Z,17.90
2018-07-24T10:13:25.046Z,16.10
2018-07-24T10:15:52.009Z,18.20
2018-07-24T10:18:19.032Z,20.30
2018-07-24T10:20:46.021Z,18.50
2018-07-24T10:23:13.841Z,17.30
2018-07-24T10:25:43.828Z,19.60
2018-07-24T10:28:10.831Z,15.20
2018-07-24T10:30:38.563Z,15.30
2018-07-24T10:33:05.849Z,13.60
2018-07-24T10:40:41.672Z,10.90
2018-07-24T10:43:08.565Z,12.10
2018-07-24T10:45:38.490Z,11.80
2018-07-24T10:52:59.694Z,9.50
2018-07-24T10:55:27.665Z,10.10
2018-07-24T10:57:54.635Z,12.20
2018-07-24T11:00:21.619Z,10.90
2018-07-24T11:02:48.645Z,10.80
2018-07-24T11:05:16.401Z,10.70
2018-07-24T11:07:44.260Z,12.60
2018-07-24T11:10:11.290Z,9.90
2018-07-24T11:12:39.230Z,11.10
2018-07-24T11:15:06.303Z,11.00
2018-07-24T11:17:36.635Z,12.20
2018-07-24T11:22:31.654Z,9.40
2018-07-24T11:29:52.759Z,9.50
2018-07-24T11:32:19.784Z,10.70
2018-07-24T11:34:46.774Z,11.90
2018-07-24T11:37:14.597Z,12.10
2018-07-24T11:39:41.653Z,11.60
2018-07-24T11:42:09.583Z,11.30
2018-07-24T11:44:36.569Z,11.40
2018-07-24T11:47:03.605Z,11.60
2018-07-24T11:49:30.683Z,12.10
2018-07-24T11:51:57.816Z,11.90
2018-07-24T11:54:24.751Z,11.80
2018-07-24T11:59:32.245Z,12.70
2018-07-24T12:01:59.230Z,10.80
2018-07-24T12:04:26.270Z,9.60
2018-07-24T12:06:54.144Z,11.20
2018-07-24T12:09:22.046Z,10.90
2018-07-24T12:11:49.037Z,10.20
2018-07-24T12:14:16.925Z,11.70
2018-07-24T12:16:44.884Z,11.10
2018-07-24T12:19:11.873Z,10.60
2018-07-24T12:21:39.863Z,12.00
2018-07-24T12:24:06.848Z,9.20
2018-07-24T12:29:01.889Z,11.10
2018-07-24T12:31:29.709Z,9.30
2018-07-24T12:33:56.694Z,9.50
2018-07-24T12:36:23.742Z,9.90
2018-07-24T12:38:50.859Z,8.00
2018-07-24T12:41:17.841Z,9.60
2018-07-24T12:43:44.946Z,10.80
2018-07-24T12:46:11.848Z,8.20
2018-07-24T12:48:39.657Z,7.50
2018-07-24T12:51:07.666Z,6.50
2018-07-24T12:53:35.504Z,3.60
2018-07-24T12:56:02.535Z,5.30
2018-07-24T12:58:30.372Z,4.20
2018-07-24T13:00:57.357Z,3.80
2018-07-24T13:03:24.331Z,2.80
2018-07-24T13:05:52.172Z,1.70
2018-07-24T13:08:19.229Z,1.40
2018-07-24T13:10:46.143Z,1.80
2018-07-24T13:13:13.186Z,2.40
2018-07-24T13:18:22.455Z,1.00
2018-07-24T13:20:49.440Z,1.00
2018-07-24T13:23:17.215Z,1.60
2018-07-24T13:25:44.983Z,1.80
2018-07-24T13:28:12.910Z,1.20
2018-07-24T13:30:39.899Z,2.10
2018-07-24T13:33:06.926Z,1.00
2018-07-24T13:35:33.938Z,1.00
2018-07-24T13:38:00.918Z,1.00
2018-07-24T13:40:27.971Z,2.50
2018-07-24T13:42:55.768Z,1.00
2018-07-24T13:45:23.563Z,1.00
2018-07-24T13:47:50.588Z,1.00
2018-07-24T13:50:17.681Z,1.00
2018-07-24T13:52:44.666Z,1.00
2018-07-24T13:55:11.716Z,1.00
2018-07-24T13:57:38.703Z,1.00
2018-07-24T14:02:45.900Z,1.00
2018-07-24T14:05:12.888Z,1.00
2018-07-24T14:07:39.862Z,1.00
2018-07-24T14:10:06.891Z,1.00
2018-07-24T14:12:33.945Z,1.00
2018-07-24T14:17:28.904Z,1.00
2018-07-24T14:19:56.841Z,1.00
2018-07-24T14:22:23.823Z,1.00
2018-07-24T14:24:50.875Z,1.00
2018-07-24T14:27:17.867Z,1.00
2018-07-24T14:29:44.854Z,1.00
2018-07-24T14:32:12.596Z,1.00
2018-07-24T14:34:39.578Z,1.00
2018-07-24T14:37:06.564Z,1.00
2018-07-24T14:39:33.641Z,1.00
2018-07-24T14:42:00.641Z,1.00
2018-07-24T14:44:27.623Z,1.00
2018-07-24T14:46:54.646Z,1.00
2018-07-24T14:49:22.391Z,1.00
2018-07-24T14:54:18.147Z,1.00
2018-07-24T14:56:46.026Z,1.00
2018-07-24T14:59:13.024Z,1.00
2018-07-24T15:01:40.052Z,1.00
2018-07-24T15:04:07.031Z,1.00
2018-07-24T15:06:34.023Z,1.00
2018-07-24T15:09:01.071Z,1.00
2018-07-24T15:11:28.065Z,1.10
2018-07-24T15:13:55.091Z,1.00
2018-07-24T15:16:22.070Z,1.20
2018-07-24T15:18:50.016Z,1.50
2018-07-24T15:23:44.152Z,1.70
2018-07-24T15:28:51.544Z,1.00
2018-07-24T15:31:18.553Z,1.40
2018-07-24T15:33:45.531Z,1.60
2018-07-24T15:36:12.548Z,1.00
2018-07-24T15:38:39.533Z,1.00
2018-07-24T15:41:07.158Z,1.50
2018-07-24T15:43:34.201Z,1.50
2018-07-24T15:46:01.177Z,1.20
2018-07-24T15:48:28.986Z,1.30
2018-07-24T15:50:56.041Z,1.70
2018-07-24T15:53:23.832Z,1.80
2018-07-24T15:55:50.810Z,1.70
2018-07-24T15:58:17.867Z,1.20
2018-07-24T16:00:44.852Z,1.80
2018-07-24T16:03:11.844Z,2.00
2018-07-24T16:05:38.901Z,2.10
2018-07-24T16:08:05.885Z,3.00
2018-07-24T16:13:00.009Z,3.60
2018-07-24T16:15:27.763Z,3.50
2018-07-24T16:17:54.714Z,3.50
2018-07-24T16:20:21.747Z,3.60
2018-07-24T16:22:48.718Z,4.00
2018-07-24T16:25:16.456Z,4.30
2018-07-24T16:27:43.510Z,4.50
2018-07-24T16:30:10.482Z,4.70
2018-07-24T16:32:38.287Z,4.60
2018-07-24T16:40:10.928Z,5.70
2018-07-24T16:42:37.902Z,5.70
2018-07-24T16:45:04.882Z,5.60
2018-07-24T16:47:31.909Z,6.00
2018-07-24T16:49:58.896Z,6.00
2018-07-24T16:52:26.729Z,6.80
2018-07-24T16:54:54.509Z,6.80
2018-07-24T16:57:21.497Z,7.00
2018-07-24T16:59:48.501Z,7.20
2018-07-24T17:02:15.533Z,7.30
2018-07-24T17:04:42.522Z,7.80
2018-07-24T17:07:09.515Z,7.80
2018-07-24T17:09:36.541Z,8.10
2018-07-24T17:12:03.578Z,8.30
2018-07-24T17:14:30.561Z,8.80
2018-07-24T17:19:24.690Z,8.30
2018-07-24T17:21:52.563Z,9.60
2018-07-24T17:24:19.596Z,10.50
2018-07-24T17:26:46.588Z,10.30
2018-07-24T17:29:13.566Z,10.30
2018-07-24T17:31:40.643Z,9.70
2018-07-24T17:36:34.667Z,10.40
2018-07-24T17:39:01.693Z,10.30
2018-07-24T17:41:28.680Z,10.40
2018-07-24T17:43:55.661Z,10.20
2018-07-24T17:46:23.510Z,10.40
2018-07-24T17:48:50.509Z,10.80
2018-07-24T17:51:17.506Z,11.70
2018-07-24T17:53:44.609Z,11.50
2018-07-24T17:56:12.265Z,10.90
2018-07-24T18:01:17.767Z,12.40
2018-07-24T18:03:44.774Z,12.80
2018-07-24T18:06:11.794Z,12.80
2018-07-24T18:08:39.712Z,13.60
2018-07-24T18:11:06.716Z,14.50
2018-07-24T18:13:34.934Z,13.20
2018-07-24T18:16:01.980Z,13.50
2018-07-24T18:18:29.930Z,13.50
2018-07-24T18:20:56.912Z,13.50
2018-07-24T18:23:24.819Z,14.60
2018-07-24T18:25:51.786Z,14.30
2018-07-24T18:28:18.789Z,14.30
2018-07-24T18:30:45.871Z,13.70
2018-07-24T18:33:13.694Z,13.70
2018-07-24T18:35:41.250Z,14.40
2018-07-24T18:38:08.287Z,14.90
2018-07-24T18:40:36.229Z,14.40
2018-07-24T18:43:03.272Z,14.10
2018-07-24T18:50:25.328Z,15.40
2018-07-24T18:55:20.230Z,14.80
2018-07-24T18:57:48.056Z,15.20
2018-07-24T19:00:15.459Z,14.30
2018-07-24T19:05:09.630Z,15.50
2018-07-24T19:07:37.197Z,15.20
2018-07-24T19:10:04.211Z,15.30
2018-07-24T19:12:31.201Z,15.60
2018-07-24T19:19:53.355Z,15.40
2018-07-24T19:22:20.456Z,15.60
2018-07-24T19:24:47.544Z,15.40
2018-07-24T19:29:54.137Z,15.70
2018-07-24T19:34:48.232Z,16.40
2018-07-24T19:37:15.277Z,16.80
2018-07-24T19:42:09.533Z,17.80
2018-07-24T19:44:36.817Z,16.90
2018-07-24T19:47:03.805Z,17.10
2018-07-24T19:49:30.853Z,18.60
2018-07-24T19:51:58.145Z,18.80
2018-07-24T19:54:25.312Z,18.90
2018-07-24T19:56:52.486Z,19.20
2018-07-24T19:59:19.654Z,18.90
2018-07-24T20:01:46.771Z,19.30
2018-07-24T20:04:13.767Z,19.40
2018-07-24T20:06:40.789Z,19.50
2018-07-24T20:09:07.794Z,20.20
2018-07-24T20:11:34.921Z,20.90
2018-07-24T20:14:02.070Z,21.30
2018-07-24T20:16:29.531Z,20.90
2018-07-24T20:18:56.525Z,20.70
2018-07-24T20:21:23.600Z,20.70
2018-07-24T20:23:50.735Z,21.00
2018-07-24T20:26:17.604Z,20.70
2018-07-24T20:28:45.548Z,21.30
2018-07-24T20:33:51.983Z,21.40
2018-07-24T20:38:46.082Z,20.80
2018-07-24T20:41:13.242Z,22.20
2018-07-24T20:43:40.223Z,21.90
2018-07-24T20:46:07.230Z,21.60
2018-07-24T20:48:34.286Z,21.80
2018-07-24T20:51:01.313Z,21.80
2018-07-24T20:53:28.270Z,22.50
2018-07-24T20:55:55.437Z,22.80
2018-07-24T20:58:22.443Z,23.30
2018-07-24T21:00:49.440Z,23.80
2018-07-24T21:03:16.474Z,24.20
2018-07-24T21:05:43.454Z,24.20
2018-07-24T21:08:10.444Z,24.90
2018-07-24T21:10:37.500Z,25.80
2018-07-24T21:13:04.524Z,25.20
2018-07-24T21:15:31.469Z,25.20
2018-07-24T21:17:58.499Z,26.60
2018-07-24T21:22:52.548Z,25.40
2018-07-24T21:25:19.608Z,26.70
2018-07-24T21:27:46.595Z,28.80
2018-07-24T21:30:13.580Z,28.40
2018-07-24T21:32:40.622Z,28.80
2018-07-24T21:35:07.620Z,28.00
2018-07-24T21:40:01.751Z,29.10
2018-07-24T21:42:28.804Z,28.20
2018-07-24T21:47:22.870Z,28.20
2018-07-24T21:52:28.427Z,29.10
2018-07-24T21:54:55.436Z,28.80
2018-07-24T21:57:22.593Z,28.70
2018-07-24T21:59:49.594Z,28.10
2018-07-24T22:02:16.589Z,28.60
2018-07-24T22:04:43.572Z,29.00
2018-07-24T22:07:10.611Z,30.80
2018-07-24T22:09:37.597Z,31.90
2018-07-24T22:12:04.593Z,30.40
2018-07-24T22:14:31.627Z,31.60
2018-07-24T22:16:58.621Z,31.20
2018-07-24T22:19:25.612Z,30.90
2018-07-24T22:21:52.705Z,31.80
2018-07-24T22:24:19.700Z,32.20
2018-07-24T22:26:46.690Z,32.40
2018-07-24T22:29:13.713Z,33.50
2018-07-24T22:31:40.692Z,33.10
2018-07-24T22:34:07.680Z,32.30
2018-07-24T22:36:34.745Z,34.40
2018-07-24T22:39:01.731Z,34.10
2018-07-24T22:41:28.713Z,34.10
2018-07-24T22:43:55.752Z,33.40
2018-07-24T22:48:49.809Z,35.30
2018-07-24T22:51:17.815Z,35.70
2018-07-24T22:56:11.894Z,33.80
2018-07-24T22:58:38.922Z,35.10
2018-07-24T23:01:05.906Z,34.80
2018-07-24T23:03:33.830Z,35.80
2018-07-24T23:06:00.907Z,36.40
2018-07-24T23:08:27.882Z,38.20
2018-07-24T23:13:33.390Z,39.00
2018-07-24T23:16:00.366Z,38.90
2018-07-24T23:20:54.492Z,42.60
2018-07-24T23:23:21.483Z,43.70
2018-07-24T23:25:48.469Z,43.90
2018-07-24T23:28:15.497Z,44.90
2018-07-24T23:33:09.553Z,46.40
2018-07-24T23:35:36.584Z,47.90
2018-07-24T23:38:03.571Z,47.90
2018-07-24T23:40:30.554Z,48.50
2018-07-24T23:42:57.591Z,47.00
2018-07-24T23:45:24.590Z,47.50
2018-07-24T23:47:51.571Z,48.30
2018-07-24T23:50:18.629Z,54.70
2018-07-24T23:52:45.656Z,54.30
2018-07-24T23:55:12.676Z,55.00
2018-07-24T23:57:40.516Z,55.80
